sensor_id;sensor_type;location;lat;lon;timestamp;pressure;altitude;pressure_sealevel;temperature;humidity
22743;BME280;11538;48.884;8.696;2023-02-12T00:01:24;100754.00;;;4.91;100.00
22743;BME280;11538;48.884;8.696;2023-02-12T00:03:51;100748.19;;;4.94;100.00
22743;BME280;11538;48.884;8.696;2023-02-12T00:06:18;100752.34;;;4.96;100.00
22743;BME280;11538;48.884;8.696;2023-02-12T00:08:48;100753.56;;;4.94;100.00
22743;BME280;11538;48.884;8.696;2023-02-12T00:11:18;100758.56;;;4.90;100.00
22743;BME280;11538;48.884;8.696;2023-02-12T00:13:45;100750.88;;;4.94;100.00
22743;BME280;11538;48.884;8.696;2023-02-12T00:16:15;100748.44;;;4.92;100.00
22743;BME280;11538;48.884;8.696;2023-02-12T00:18:43;100739.94;;;4.89;100.00
22743;BME280;11538;48.884;8.696;2023-02-12T00:21:10;100741.00;;;4.88;100.00
22743;BME280;11538;48.884;8.696;2023-02-12T00:23:38;100749.06;;;4.88;100.00
22743;BME280;11538;48.884;8.696;2023-02-12T00:26:08;100752.16;;;4.85;100.00
22743;BME280;11538;48.884;8.696;2023-02-12T00:28:35;100751.78;;;4.81;100.00
22743;BME280;11538;48.884;8.696;2023-02-12T00:31:04;100749.72;;;4.76;100.00
22743;BME280;11538;48.884;8.696;2023-02-12T00:33:31;100762.13;;;4.77;100.00
22743;BME280;11538;48.884;8.696;2023-02-12T00:35:58;100751.78;;;4.81;100.00
22743;BME280;11538;48.884;8.696;2023-02-12T00:38:25;100758.59;;;4.83;100.00
22743;BME280;11538;48.884;8.696;2023-02-12T00:40:52;100753.81;;;4.86;100.00
22743;BME280;11538;48.884;8.696;2023-02-12T00:43:19;100761.88;;;4.86;100.00
22743;BME280;11538;48.884;8.696;2023-02-12T00:45:47;100762.13;;;4.84;100.00
22743;BME280;11538;48.884;8.696;2023-02-12T00:48:14;100766.66;;;4.83;100.00
22743;BME280;11538;48.884;8.696;2023-02-12T00:50:45;100766.88;;;4.82;100.00
22743;BME280;11538;48.884;8.696;2023-02-12T00:53:12;100770.81;;;4.79;100.00
22743;BME280;11538;48.884;8.696;2023-02-12T00:55:39;100772.25;;;4.82;100.00
22743;BME280;11538;48.884;8.696;2023-02-12T00:58:06;100769.97;;;4.86;100.00
22743;BME280;11538;48.884;8.696;2023-02-12T01:00:34;100769.16;;;4.85;100.00
22743;BME280;11538;48.884;8.696;2023-02-12T01:03:02;100769.53;;;4.89;100.00
22743;BME280;11538;48.884;8.696;2023-02-12T01:05:30;100765.00;;;4.89;100.00
22743;BME280;11538;48.884;8.696;2023-02-12T01:07:57;100772.84;;;4.91;100.00
22743;BME280;11538;48.884;8.696;2023-02-12T01:10:24;100776.97;;;4.93;100.00
22743;BME280;11538;48.884;8.696;2023-02-12T01:12:51;100786.09;;;4.86;100.00
22743;BME280;11538;48.884;8.696;2023-02-12T01:15:18;100782.78;;;4.83;100.00
22743;BME280;11538;48.884;8.696;2023-02-12T01:17:45;100784.88;;;4.81;100.00
22743;BME280;11538;48.884;8.696;2023-02-12T01:20:16;100785.91;;;4.80;100.00
22743;BME280;11538;48.884;8.696;2023-02-12T01:22:44;100779.50;;;4.81;100.00
22743;BME280;11538;48.884;8.696;2023-02-12T01:25:11;100787.13;;;4.85;100.00
22743;BME280;11538;48.884;8.696;2023-02-12T01:27:38;100780.72;;;4.86;100.00
22743;BME280;11538;48.884;8.696;2023-02-12T01:30:09;100765.19;;;4.88;100.00
22743;BME280;11538;48.884;8.696;2023-02-12T01:32:36;100776.38;;;4.91;100.00
22743;BME280;11538;48.884;8.696;2023-02-12T01:35:04;100772.63;;;4.92;100.00
22743;BME280;11538;48.884;8.696;2023-02-12T01:37:37;100772.44;;;4.87;100.00
22743;BME280;11538;48.884;8.696;2023-02-12T01:40:05;100775.75;;;4.82;100.00
22743;BME280;11538;48.884;8.696;2023-02-12T01:42:32;100777.03;;;4.80;100.00
22743;BME280;11538;48.884;8.696;2023-02-12T01:47:43;100775.56;;;4.77;100.00
22743;BME280;11538;48.884;8.696;2023-02-12T01:50:12;100774.09;;;4.81;100.00
22743;BME280;11538;48.884;8.696;2023-02-12T01:52:44;100770.00;;;4.79;100.00
22743;BME280;11538;48.884;8.696;2023-02-12T01:55:13;100771.03;;;4.78;100.00
22743;BME280;11538;48.884;8.696;2023-02-12T01:57:42;100775.38;;;4.72;100.00
22743;BME280;11538;48.884;8.696;2023-02-12T02:00:15;100767.13;;;4.74;100.00
22743;BME280;11538;48.884;8.696;2023-02-12T02:02:47;100772.06;;;4.77;100.00
22743;BME280;11538;48.884;8.696;2023-02-12T02:05:22;100758.81;;;4.75;100.00
22743;BME280;11538;48.884;8.696;2023-02-12T02:07:51;100759.66;;;4.76;100.00
22743;BME280;11538;48.884;8.696;2023-02-12T02:10:19;100759.66;;;4.76;100.00
22743;BME280;11538;48.884;8.696;2023-02-12T02:12:46;100760.91;;;4.73;100.00
22743;BME280;11538;48.884;8.696;2023-02-12T02:15:31;100761.31;;;4.70;100.00
22743;BME280;11538;48.884;8.696;2023-02-12T02:26:34;100751.00;;;4.67;100.00
22743;BME280;11538;48.884;8.696;2023-02-12T02:32:17;100741.88;;;4.68;100.00
22743;BME280;11538;48.884;8.696;2023-02-12T02:34:59;100736.50;;;4.68;100.00
22743;BME280;11538;48.884;8.696;2023-02-12T02:37:50;100742.50;;;4.77;100.00
22743;BME280;11538;48.884;8.696;2023-02-12T02:40:26;100738.97;;;4.76;100.00
22743;BME280;11538;48.884;8.696;2023-02-12T02:43:14;100746.41;;;4.81;100.00
22743;BME280;11538;48.884;8.696;2023-02-12T02:45:46;100748.88;;;4.82;100.00
22743;BME280;11538;48.884;8.696;2023-02-12T02:48:21;100744.34;;;4.83;100.00
22743;BME280;11538;48.884;8.696;2023-02-12T02:50:58;100734.81;;;4.80;100.00
22743;BME280;11538;48.884;8.696;2023-02-12T02:53:33;100735.25;;;4.77;100.00
22743;BME280;11538;48.884;8.696;2023-02-12T02:56:03;100734.81;;;4.80;100.00
22743;BME280;11538;48.884;8.696;2023-02-12T02:58:39;100727.34;;;4.82;100.00
22743;BME280;11538;48.884;8.696;2023-02-12T03:01:15;100732.34;;;4.79;100.00
22743;BME280;11538;48.884;8.696;2023-02-12T03:03:50;100735.25;;;4.77;100.00
22743;BME280;11538;48.884;8.696;2023-02-12T03:06:28;100727.16;;;4.77;100.00
22743;BME280;11538;48.884;8.696;2023-02-12T03:09:00;100728.22;;;4.76;100.00
22743;BME280;11538;48.884;8.696;2023-02-12T03:11:30;100731.50;;;4.78;100.00
22743;BME280;11538;48.884;8.696;2023-02-12T03:14:07;100730.03;;;4.82;100.00
22743;BME280;11538;48.884;8.696;2023-02-12T03:16:43;100733.16;;;4.86;100.00
22743;BME280;11538;48.884;8.696;2023-02-12T03:19:18;100736.66;;;4.87;100.00
22743;BME280;11538;48.884;8.696;2023-02-12T03:21:51;100727.97;;;4.85;100.00
22743;BME280;11538;48.884;8.696;2023-02-12T03:24:34;100730.03;;;4.82;100.00
22743;BME280;11538;48.884;8.696;2023-02-12T03:27:08;100734.00;;;4.80;100.00
22743;BME280;11538;48.884;8.696;2023-02-12T03:29:36;100733.56;;;4.83;100.00
22743;BME280;11538;48.884;8.696;2023-02-12T03:37:30;100743.06;;;4.86;100.00
22743;BME280;11538;48.884;8.696;2023-02-12T03:40:18;100743.91;;;4.79;100.00
22743;BME280;11538;48.884;8.696;2023-02-12T03:43:01;100738.34;;;4.74;100.00
22743;BME280;11538;48.884;8.696;2023-02-12T03:48:26;100736.69;;;4.73;100.00
22743;BME280;11538;48.884;8.696;2023-02-12T03:53:40;100740.66;;;4.71;100.00
22743;BME280;11538;48.884;8.696;2023-02-12T03:56:13;100742.50;;;4.70;100.00
22743;BME280;11538;48.884;8.696;2023-02-12T03:58:42;100746.22;;;4.76;100.00
22743;BME280;11538;48.884;8.696;2023-02-12T04:01:10;100741.47;;;4.78;100.00
22743;BME280;11538;48.884;8.696;2023-02-12T04:03:37;100749.94;;;4.75;100.00
22743;BME280;11538;48.884;8.696;2023-02-12T04:06:14;100743.72;;;4.74;100.00
22743;BME280;11538;48.884;8.696;2023-02-12T04:08:43;100741.47;;;4.78;100.00
22743;BME280;11538;48.884;8.696;2023-02-12T04:11:37;100739.34;;;4.87;100.00
22743;BME280;11538;48.884;8.696;2023-02-12T04:14:23;100734.97;;;4.92;100.00
22743;BME280;11538;48.884;8.696;2023-02-12T04:17:04;100736.41;;;4.95;100.00
22743;BME280;11538;48.884;8.696;2023-02-12T04:20:10;100743.88;;;4.93;100.00
22743;BME280;11538;48.884;8.696;2023-02-12T04:23:05;100749.66;;;4.90;100.00
22743;BME280;11538;48.884;8.696;2023-02-12T04:25:55;100750.75;;;4.82;100.00
22743;BME280;11538;48.884;8.696;2023-02-12T04:33:41;100757.19;;;4.74;100.00
22743;BME280;11538;48.884;8.696;2023-02-12T04:36:16;100751.97;;;4.79;100.00
22743;BME280;11538;48.884;8.696;2023-02-12T04:39:09;100763.59;;;4.80;100.00
22743;BME280;11538;48.884;8.696;2023-02-12T04:41:38;100765.00;;;4.82;100.00
22743;BME280;11538;48.884;8.696;2023-02-12T04:44:16;100760.03;;;4.86;100.00
22743;BME280;11538;48.884;8.696;2023-02-12T04:46:43;100757.13;;;4.88;100.00
22743;BME280;11538;48.884;8.696;2023-02-12T04:49:15;100766.47;;;4.85;100.00
22743;BME280;11538;48.884;8.696;2023-02-12T04:51:42;100768.53;;;4.83;100.00
22743;BME280;11538;48.884;8.696;2023-02-12T04:54:09;100762.94;;;4.85;100.00
22743;BME280;11538;48.884;8.696;2023-02-12T04:56:36;100769.97;;;4.86;100.00
22743;BME280;11538;48.884;8.696;2023-02-12T04:59:03;100763.34;;;4.88;100.00
22743;BME280;11538;48.884;8.696;2023-02-12T05:01:32;100761.88;;;4.92;100.00
22743;BME280;11538;48.884;8.696;2023-02-12T05:04:00;100765.00;;;4.89;100.00
22743;BME280;11538;48.884;8.696;2023-02-12T05:06:27;100758.78;;;4.89;100.00
22743;BME280;11538;48.884;8.696;2023-02-12T05:08:56;100761.69;;;4.87;100.00
22743;BME280;11538;48.884;8.696;2023-02-12T05:11:23;100754.00;;;4.91;100.00
22743;BME280;11538;48.884;8.696;2023-02-12T05:13:51;100757.97;;;4.88;100.00
22743;BME280;11538;48.884;8.696;2023-02-12T05:16:19;100763.78;;;4.85;100.00
22743;BME280;11538;48.884;8.696;2023-02-12T05:18:47;100766.22;;;4.87;100.00
22743;BME280;11538;48.884;8.696;2023-02-12T05:21:14;100761.47;;;4.89;100.00
22743;BME280;11538;48.884;8.696;2023-02-12T05:23:41;100770.16;;;4.91;100.00
22743;BME280;11538;48.884;8.696;2023-02-12T05:26:14;100766.84;;;4.89;100.00
22743;BME280;11538;48.884;8.696;2023-02-12T05:28:41;100755.47;;;4.87;100.00
22743;BME280;11538;48.884;8.696;2023-02-12T05:31:10;100762.75;;;4.79;100.00
22743;BME280;11538;48.884;8.696;2023-02-12T05:33:43;100765.66;;;4.78;100.00
22743;BME280;11538;48.884;8.696;2023-02-12T05:36:14;100767.31;;;4.79;100.00
22743;BME280;11538;48.884;8.696;2023-02-12T05:38:41;100762.53;;;4.81;100.00
22743;BME280;11538;48.884;8.696;2023-02-12T05:41:17;100764.81;;;4.77;100.00
22743;BME280;11538;48.884;8.696;2023-02-12T05:43:44;100765.44;;;4.79;100.00
22743;BME280;11538;48.884;8.696;2023-02-12T05:46:16;100763.78;;;4.78;100.00
22743;BME280;11538;48.884;8.696;2023-02-12T05:48:43;100759.25;;;4.79;100.00
22743;BME280;11538;48.884;8.696;2023-02-12T05:51:13;100763.34;;;4.81;100.00
22743;BME280;11538;48.884;8.696;2023-02-12T05:53:41;100761.69;;;4.80;100.00
22743;BME280;11538;48.884;8.696;2023-02-12T05:56:09;100761.50;;;4.82;100.00
22743;BME280;11538;48.884;8.696;2023-02-12T05:58:36;100760.47;;;4.83;100.00
22743;BME280;11538;48.884;8.696;2023-02-12T06:01:09;100757.97;;;4.81;100.00
22743;BME280;11538;48.884;8.696;2023-02-12T06:03:36;100757.97;;;4.81;100.00
22743;BME280;11538;48.884;8.696;2023-02-12T06:06:03;100757.97;;;4.81;100.00
22743;BME280;11538;48.884;8.696;2023-02-12T06:08:30;100750.34;;;4.78;100.00
22743;BME280;11538;48.884;8.696;2023-02-12T06:11:02;100750.56;;;4.77;100.00
22743;BME280;11538;48.884;8.696;2023-02-12T06:13:30;100749.09;;;4.74;100.00
22743;BME280;11538;48.884;8.696;2023-02-12T06:15:57;100749.09;;;4.74;100.00
22743;BME280;11538;48.884;8.696;2023-02-12T06:18:25;100750.56;;;4.77;100.00
22743;BME280;11538;48.884;8.696;2023-02-12T06:20:52;100750.56;;;4.77;100.00
22743;BME280;11538;48.884;8.696;2023-02-12T06:23:23;100748.50;;;4.79;100.00
22743;BME280;11538;48.884;8.696;2023-02-12T06:25:53;100761.69;;;4.80;100.00
22743;BME280;11538;48.884;8.696;2023-02-12T06:28:21;100766.28;;;4.80;100.00
22743;BME280;11538;48.884;8.696;2023-02-12T06:30:48;100769.16;;;4.78;100.00
22743;BME280;11538;48.884;8.696;2023-02-12T06:33:15;100764.19;;;4.75;100.00
22743;BME280;11538;48.884;8.696;2023-02-12T06:35:42;100770.84;;;4.73;100.00
22743;BME280;11538;48.884;8.696;2023-02-12T06:38:09;100767.50;;;4.77;100.00
22743;BME280;11538;48.884;8.696;2023-02-12T06:40:35;100772.88;;;4.77;100.00
22743;BME280;11538;48.884;8.696;2023-02-12T06:43:02;100772.69;;;4.79;100.00
22743;BME280;11538;48.884;8.696;2023-02-12T06:45:29;100784.25;;;4.79;100.00
22743;BME280;11538;48.884;8.696;2023-02-12T06:47:56;100791.50;;;4.79;100.00
22743;BME280;11538;48.884;8.696;2023-02-12T06:50:23;100782.81;;;4.77;100.00
22743;BME280;11538;48.884;8.696;2023-02-12T06:52:50;100780.75;;;4.79;100.00
22743;BME280;11538;48.884;8.696;2023-02-12T06:55:17;100779.28;;;4.83;100.00
22743;BME280;11538;48.884;8.696;2023-02-12T06:57:44;100785.28;;;4.85;100.00
22743;BME280;11538;48.884;8.696;2023-02-12T07:00:11;100780.28;;;4.89;100.00
22743;BME280;11538;48.884;8.696;2023-02-12T07:02:38;100787.50;;;4.95;100.00
22743;BME280;11538;48.884;8.696;2023-02-12T07:05:05;100786.28;;;4.97;100.00
22743;BME280;11538;48.884;8.696;2023-02-12T07:07:32;100789.34;;;5.01;100.00
22743;BME280;11538;48.884;8.696;2023-02-12T07:09:59;100786.22;;;5.04;100.00
22743;BME280;11538;48.884;8.696;2023-02-12T07:12:25;100791.59;;;5.04;100.00
22743;BME280;11538;48.884;8.696;2023-02-12T07:14:52;100786.03;;;5.06;100.00
22743;BME280;11538;48.884;8.696;2023-02-12T07:17:19;100790.13;;;5.08;100.00
22743;BME280;11538;48.884;8.696;2023-02-12T07:19:46;100795.09;;;5.11;100.00
22743;BME280;11538;48.884;8.696;2023-02-12T07:22:12;100797.34;;;5.15;100.00
22743;BME280;11538;48.884;8.696;2023-02-12T07:24:39;100800.03;;;5.15;100.00
22743;BME280;11538;48.884;8.696;2023-02-12T07:27:06;100798.41;;;5.13;100.00
22743;BME280;11538;48.884;8.696;2023-02-12T07:29:33;100787.19;;;5.17;100.00
22743;BME280;11538;48.884;8.696;2023-02-12T07:31:59;100795.06;;;5.18;100.00
22743;BME280;11538;48.884;8.696;2023-02-12T07:34:26;100792.78;;;5.22;100.00
22743;BME280;11538;48.884;8.696;2023-02-12T07:36:53;100788.22;;;5.22;100.00
22743;BME280;11538;48.884;8.696;2023-02-12T07:39:20;100789.88;;;5.23;100.00
22743;BME280;11538;48.884;8.696;2023-02-12T07:41:50;100791.72;;;5.23;100.00
22743;BME280;11538;48.884;8.696;2023-02-12T07:44:18;100791.28;;;5.26;100.00
22743;BME280;11538;48.884;8.696;2023-02-12T07:46:46;100789.63;;;5.32;100.00
22743;BME280;11538;48.884;8.696;2023-02-12T07:49:16;100790.66;;;5.31;100.00
22743;BME280;11538;48.884;8.696;2023-02-12T07:51:44;100792.13;;;5.33;100.00
22743;BME280;11538;48.884;8.696;2023-02-12T07:54:11;100789.44;;;5.33;100.00
22743;BME280;11538;48.884;8.696;2023-02-12T07:56:38;100787.34;;;5.35;100.00
22743;BME280;11538;48.884;8.696;2023-02-12T07:59:11;100789.38;;;5.40;100.00
22743;BME280;11538;48.884;8.696;2023-02-12T08:01:41;100789.19;;;5.41;100.00
22743;BME280;11538;48.884;8.696;2023-02-12T08:04:11;100780.88;;;5.43;100.00
22743;BME280;11538;48.884;8.696;2023-02-12T08:06:41;100776.69;;;5.47;100.00
22743;BME280;11538;48.884;8.696;2023-02-12T08:09:10;100779.38;;;5.47;100.00
22743;BME280;11538;48.884;8.696;2023-02-12T08:11:38;100782.25;;;5.52;100.00
22743;BME280;11538;48.884;8.696;2023-02-12T08:14:06;100782.44;;;5.57;100.00
22743;BME280;11538;48.884;8.696;2023-02-12T08:16:38;100774.97;;;5.60;100.00
22743;BME280;11538;48.884;8.696;2023-02-12T08:19:06;100771.41;;;5.66;100.00
22743;BME280;11538;48.884;8.696;2023-02-12T08:21:48;100776.16;;;5.70;100.00
22743;BME280;11538;48.884;8.696;2023-02-12T08:24:15;100774.66;;;5.75;100.00
22743;BME280;11538;48.884;8.696;2023-02-12T08:26:43;100779.00;;;5.76;100.00
22743;BME280;11538;48.884;8.696;2023-02-12T08:29:14;100780.22;;;5.80;100.00
22743;BME280;11538;48.884;8.696;2023-02-12T08:31:44;100773.13;;;5.85;100.00
22743;BME280;11538;48.884;8.696;2023-02-12T08:34:22;100774.72;;;5.93;100.00
22743;BME280;11538;48.884;8.696;2023-02-12T08:36:51;100769.31;;;6.00;100.00
22743;BME280;11538;48.884;8.696;2023-02-12T08:39:19;100776.53;;;6.06;100.00
22743;BME280;11538;48.884;8.696;2023-02-12T08:41:47;100775.41;;;6.14;100.00
22743;BME280;11538;48.884;8.696;2023-02-12T08:44:15;100779.16;;;6.13;100.00
22743;BME280;11538;48.884;8.696;2023-02-12T08:46:44;100780.53;;;6.22;100.00
22743;BME280;11538;48.884;8.696;2023-02-12T08:49:17;100783.09;;;6.36;100.00
22743;BME280;11538;48.884;8.696;2023-02-12T08:51:48;100784.00;;;6.48;100.00
22743;BME280;11538;48.884;8.696;2023-02-12T08:54:20;100784.91;;;6.61;100.00
22743;BME280;11538;48.884;8.696;2023-02-12T08:56:48;100779.53;;;6.61;100.00
22743;BME280;11538;48.884;8.696;2023-02-12T08:59:16;100787.19;;;6.64;100.00
22743;BME280;11538;48.884;8.696;2023-02-12T09:01:43;100784.84;;;6.67;100.00
22743;BME280;11538;48.884;8.696;2023-02-12T09:04:14;100795.66;;;6.67;100.00
22743;BME280;11538;48.884;8.696;2023-02-12T09:06:44;100787.09;;;6.70;100.00
22743;BME280;11538;48.884;8.696;2023-02-12T09:09:11;100790.19;;;6.74;100.00
22743;BME280;11538;48.884;8.696;2023-02-12T09:11:40;100788.31;;;6.75;100.00
22743;BME280;11538;48.884;8.696;2023-02-12T09:14:10;100789.50;;;6.79;100.00
22743;BME280;11538;48.884;8.696;2023-02-12T09:16:38;100793.78;;;6.86;100.00
22743;BME280;11538;48.884;8.696;2023-02-12T09:19:07;100795.59;;;6.93;100.00
22743;BME280;11538;48.884;8.696;2023-02-12T09:21:34;100799.34;;;6.92;100.00
22743;BME280;11538;48.884;8.696;2023-02-12T09:24:01;100801.44;;;6.90;100.00
22743;BME280;11538;48.884;8.696;2023-02-12T09:26:29;100798.28;;;6.93;100.00
22743;BME280;11538;48.884;8.696;2023-02-12T09:28:56;100797.00;;;6.95;100.00
22743;BME280;11538;48.884;8.696;2023-02-12T09:31:28;100800.44;;;7.02;100.00
22743;BME280;11538;48.884;8.696;2023-02-12T09:34:01;100800.81;;;7.06;100.00
22743;BME280;11538;48.884;8.696;2023-02-12T09:36:30;100810.56;;;7.07;100.00
22743;BME280;11538;48.884;8.696;2023-02-12T09:38:57;100805.31;;;7.12;100.00
22743;BME280;11538;48.884;8.696;2023-02-12T09:41:52;100798.41;;;7.16;100.00
22743;BME280;11538;48.884;8.696;2023-02-12T09:47:07;100807.31;;;7.17;100.00
22743;BME280;11538;48.884;8.696;2023-02-12T09:50:04;100808.16;;;7.17;100.00
22743;BME280;11538;48.884;8.696;2023-02-12T09:52:36;100801.47;;;7.20;100.00
22743;BME280;11538;48.884;8.696;2023-02-12T09:55:03;100811.66;;;7.18;100.00
22743;BME280;11538;48.884;8.696;2023-02-12T09:57:32;100812.50;;;7.19;100.00
22743;BME280;11538;48.884;8.696;2023-02-12T10:00:05;100810.41;;;7.21;100.00
22743;BME280;11538;48.884;8.696;2023-02-12T10:02:35;100802.19;;;7.27;100.00
22743;BME280;11538;48.884;8.696;2023-02-12T10:05:04;100805.28;;;7.31;100.00
22743;BME280;11538;48.884;8.696;2023-02-12T10:10:16;100805.41;;;7.36;100.00
22743;BME280;11538;48.884;8.696;2023-02-12T10:12:50;100802.84;;;7.41;100.00
22743;BME280;11538;48.884;8.696;2023-02-12T10:23:44;100797.06;;;7.56;100.00
22743;BME280;11538;48.884;8.696;2023-02-12T10:26:19;100788.84;;;7.63;100.00
22743;BME280;11538;48.884;8.696;2023-02-12T10:28:48;100794.16;;;7.70;100.00
22743;BME280;11538;48.884;8.696;2023-02-12T10:31:28;100798.16;;;7.79;99.83
22743;BME280;11538;48.884;8.696;2023-02-12T10:33:57;100790.19;;;7.84;99.76
22743;BME280;11538;48.884;8.696;2023-02-12T10:36:31;100794.88;;;7.89;99.13
22743;BME280;11538;48.884;8.696;2023-02-12T10:39:13;100799.59;;;7.94;98.38
22743;BME280;11538;48.884;8.696;2023-02-12T10:42:02;100796.06;;;7.93;98.07
22743;BME280;11538;48.884;8.696;2023-02-12T10:44:31;100792.78;;;7.91;98.47
22743;BME280;11538;48.884;8.696;2023-02-12T10:46:58;100788.13;;;7.98;98.27
22743;BME280;11538;48.884;8.696;2023-02-12T10:49:25;100783.03;;;8.02;97.91
22743;BME280;11538;48.884;8.696;2023-02-12T10:51:59;100780.72;;;8.05;97.37
22743;BME280;11538;48.884;8.696;2023-02-12T10:57:19;100777.53;;;8.09;96.70
22743;BME280;11538;48.884;8.696;2023-02-12T10:59:48;100772.94;;;8.09;96.41
22743;BME280;11538;48.884;8.696;2023-02-12T11:04:53;100773.53;;;8.11;96.04
22743;BME280;11538;48.884;8.696;2023-02-12T11:07:21;100771.19;;;8.15;95.77
22743;BME280;11538;48.884;8.696;2023-02-12T11:09:50;100771.91;;;8.22;95.47
22743;BME280;11538;48.884;8.696;2023-02-12T11:12:25;100767.69;;;8.26;94.87
22743;BME280;11538;48.884;8.696;2023-02-12T11:14:56;100770.00;;;8.23;94.24
22743;BME280;11538;48.884;8.696;2023-02-12T11:17:38;100776.94;;;8.18;94.47
22743;BME280;11538;48.884;8.696;2023-02-12T11:22:53;100774.50;;;8.17;94.98
22743;BME280;11538;48.884;8.696;2023-02-12T11:25:22;100770.72;;;8.18;94.40
22743;BME280;11538;48.884;8.696;2023-02-12T11:28:15;100766.13;;;8.18;94.19
22743;BME280;11538;48.884;8.696;2023-02-12T11:33:39;100764.16;;;8.14;94.09
22743;BME280;11538;48.884;8.696;2023-02-12T11:36:23;100767.19;;;8.17;93.71
22743;BME280;11538;48.884;8.696;2023-02-12T11:38:53;100768.16;;;8.23;93.85
22743;BME280;11538;48.884;8.696;2023-02-12T11:41:26;100778.03;;;8.29;93.18
22743;BME280;11538;48.884;8.696;2023-02-12T11:43:57;100773.31;;;8.25;92.86
22743;BME280;11538;48.884;8.696;2023-02-12T11:46:25;100765.31;;;8.30;92.70
22743;BME280;11538;48.884;8.696;2023-02-12T11:48:54;100769.91;;;8.29;92.15
22743;BME280;11538;48.884;8.696;2023-02-12T11:51:27;100766.72;;;8.32;92.20
22743;BME280;11538;48.884;8.696;2023-02-12T11:54:01;100765.56;;;8.28;92.16
22743;BME280;11538;48.884;8.696;2023-02-12T11:56:45;100759.66;;;8.43;91.57
22743;BME280;11538;48.884;8.696;2023-02-12T11:59:37;100766.03;;;8.49;91.13
22743;BME280;11538;48.884;8.696;2023-02-12T12:02:22;100766.03;;;8.49;91.56
22743;BME280;11538;48.884;8.696;2023-02-12T12:04:54;100763.91;;;8.63;90.02
22743;BME280;11538;48.884;8.696;2023-02-12T12:07:28;100760.75;;;8.66;90.33
22743;BME280;11538;48.884;8.696;2023-02-12T12:10:00;100755.91;;;8.68;90.17
22743;BME280;11538;48.884;8.696;2023-02-12T12:12:52;100755.31;;;8.66;90.16
22743;BME280;11538;48.884;8.696;2023-02-12T12:15:25;100758.84;;;8.67;90.29
22743;BME280;11538;48.884;8.696;2023-02-12T12:18:28;100747.31;;;8.71;90.62
22743;BME280;11538;48.884;8.696;2023-02-12T12:21:24;100745.09;;;9.38;88.52
22743;BME280;11538;48.884;8.696;2023-02-12T12:24:00;100735.19;;;10.12;82.63
22743;BME280;11538;48.884;8.696;2023-02-12T12:26:30;100746.31;;;10.16;80.92
22743;BME280;11538;48.884;8.696;2023-02-12T12:29:04;100740.53;;;10.07;81.14
22743;BME280;11538;48.884;8.696;2023-02-12T12:31:42;100742.63;;;10.22;80.57
22743;BME280;11538;48.884;8.696;2023-02-12T12:34:13;100740.50;;;10.41;78.42
22743;BME280;11538;48.884;8.696;2023-02-12T12:50:34;100718.41;;;12.88;65.34
22743;BME280;11538;48.884;8.696;2023-02-12T12:53:31;100723.47;;;13.53;63.56
22743;BME280;11538;48.884;8.696;2023-02-12T12:58:45;100715.84;;;13.76;60.99
22743;BME280;11538;48.884;8.696;2023-02-12T13:01:41;100704.66;;;13.93;60.28
22743;BME280;11538;48.884;8.696;2023-02-12T13:04:18;100712.00;;;13.98;59.43
22743;BME280;11538;48.884;8.696;2023-02-12T13:07:59;100699.72;;;14.11;58.77
22743;BME280;11538;48.884;8.696;2023-02-12T13:12:48;100689.31;;;14.18;58.46
22743;BME280;11538;48.884;8.696;2023-02-12T13:18:25;100686.34;;;13.99;59.29
22743;BME280;11538;48.884;8.696;2023-02-12T13:21:00;100679.53;;;13.86;59.22
22743;BME280;11538;48.884;8.696;2023-02-12T13:23:54;100684.66;;;14.18;58.61
22743;BME280;11538;48.884;8.696;2023-02-12T13:29:12;100675.25;;;14.56;56.81
22743;BME280;11538;48.884;8.696;2023-02-12T13:32:23;100679.31;;;14.63;56.81
22743;BME280;11538;48.884;8.696;2023-02-12T13:34:53;100665.94;;;14.72;56.34
22743;BME280;11538;48.884;8.696;2023-02-12T13:37:48;100679.28;;;14.69;56.64
22743;BME280;11538;48.884;8.696;2023-02-12T13:40:25;100674.09;;;14.77;56.31
22743;BME280;11538;48.884;8.696;2023-02-12T13:43:11;100675.72;;;14.79;56.09
22743;BME280;11538;48.884;8.696;2023-02-12T13:51:41;100658.91;;;15.01;55.56
22743;BME280;11538;48.884;8.696;2023-02-12T13:56:54;100662.22;;;14.98;55.71
22743;BME280;11538;48.884;8.696;2023-02-12T14:05:04;100652.28;;;14.57;56.88
22743;BME280;11538;48.884;8.696;2023-02-12T14:07:42;100650.41;;;14.52;56.79
22743;BME280;11538;48.884;8.696;2023-02-12T14:10:20;100644.50;;;14.29;57.78
22743;BME280;11538;48.884;8.696;2023-02-12T14:12:48;100641.28;;;14.17;57.88
22743;BME280;11538;48.884;8.696;2023-02-12T14:18:03;100637.03;;;13.59;59.90
22743;BME280;11538;48.884;8.696;2023-02-12T14:20:32;100648.69;;;12.92;62.02
22743;BME280;11538;48.884;8.696;2023-02-12T14:25:37;100642.72;;;11.78;67.10
22743;BME280;11538;48.884;8.696;2023-02-12T14:33:49;100636.94;;;11.32;70.61
22743;BME280;11538;48.884;8.696;2023-02-12T14:39:04;100630.28;;;11.12;72.50
22743;BME280;11538;48.884;8.696;2023-02-12T14:41:36;100639.44;;;11.06;72.87
22743;BME280;11538;48.884;8.696;2023-02-12T14:46:54;100632.63;;;10.76;74.89
22743;BME280;11538;48.884;8.696;2023-02-12T14:49:35;100633.16;;;10.73;74.75
22743;BME280;11538;48.884;8.696;2023-02-12T14:54:47;100637.06;;;10.60;75.93
22743;BME280;11538;48.884;8.696;2023-02-12T14:57:32;100637.75;;;10.50;76.77
22743;BME280;11538;48.884;8.696;2023-02-12T15:03:05;100627.03;;;10.38;78.07
22743;BME280;11538;48.884;8.696;2023-02-12T15:05:42;100619.63;;;10.33;78.52
22743;BME280;11538;48.884;8.696;2023-02-12T15:14:04;100624.28;;;10.16;80.46
22743;BME280;11538;48.884;8.696;2023-02-12T15:16:46;100623.22;;;10.17;80.43
22743;BME280;11538;48.884;8.696;2023-02-12T15:19:53;100627.44;;;10.07;80.86